sensor_id;sensor_type;location;lat;lon;timestamp;P1;durP1;ratioP1;P2;durP2;ratioP2
53525;SDS011;40551;50.478;19.378;2023-08-30T00:01:26;23.70;;;21.20;;
53525;SDS011;40551;50.478;19.378;2023-08-30T00:03:58;24.60;;;22.10;;
53525;SDS011;40551;50.478;19.378;2023-08-30T00:06:30;24.50;;;21.60;;
53525;SDS011;40551;50.478;19.378;2023-08-30T00:09:02;23.90;;;21.50;;
53525;SDS011;40551;50.478;19.378;2023-08-30T00:11:35;24.60;;;21.90;;
53525;SDS011;40551;50.478;19.378;2023-08-30T00:14:07;23.30;;;20.90;;
53525;SDS011;40551;50.478;19.378;2023-08-30T00:16:39;22.40;;;20.20;;
53525;SDS011;40551;50.478;19.378;2023-08-30T00:19:11;23.10;;;20.50;;
53525;SDS011;40551;50.478;19.378;2023-08-30T00:21:43;23.10;;;20.60;;
53525;SDS011;40551;50.478;19.378;2023-08-30T00:24:15;22.50;;;20.00;;
53525;SDS011;40551;50.478;19.378;2023-08-30T00:26:48;27.50;;;24.70;;
53525;SDS011;40551;50.478;19.378;2023-08-30T00:29:20;28.60;;;25.60;;
53525;SDS011;40551;50.478;19.378;2023-08-30T00:31:52;28.80;;;26.00;;
53525;SDS011;40551;50.478;19.378;2023-08-30T00:34:25;30.50;;;27.60;;
53525;SDS011;40551;50.478;19.378;2023-08-30T00:36:57;31.20;;;28.10;;
53525;SDS011;40551;50.478;19.378;2023-08-30T00:39:28;29.30;;;26.60;;
53525;SDS011;40551;50.478;19.378;2023-08-30T00:42:01;28.80;;;25.90;;
53525;SDS011;40551;50.478;19.378;2023-08-30T00:44:36;28.90;;;25.90;;
53525;SDS011;40551;50.478;19.378;2023-08-30T00:47:09;29.20;;;26.50;;
53525;SDS011;40551;50.478;19.378;2023-08-30T00:49:41;30.70;;;27.80;;
53525;SDS011;40551;50.478;19.378;2023-08-30T00:52:14;29.00;;;25.80;;
53525;SDS011;40551;50.478;19.378;2023-08-30T00:54:45;27.90;;;25.20;;
53525;SDS011;40551;50.478;19.378;2023-08-30T00:57:18;27.70;;;25.00;;
53525;SDS011;40551;50.478;19.378;2023-08-30T00:59:50;28.70;;;25.90;;
53525;SDS011;40551;50.478;19.378;2023-08-30T01:02:23;27.90;;;25.20;;
53525;SDS011;40551;50.478;19.378;2023-08-30T01:04:56;27.80;;;25.00;;
53525;SDS011;40551;50.478;19.378;2023-08-30T01:07:28;27.70;;;25.00;;
53525;SDS011;40551;50.478;19.378;2023-08-30T01:10:00;27.00;;;24.20;;
53525;SDS011;40551;50.478;19.378;2023-08-30T01:12:33;29.30;;;26.20;;
53525;SDS011;40551;50.478;19.378;2023-08-30T01:15:10;28.20;;;25.30;;
53525;SDS011;40551;50.478;19.378;2023-08-30T01:17:46;28.90;;;26.10;;
53525;SDS011;40551;50.478;19.378;2023-08-30T01:20:19;29.60;;;26.60;;
53525;SDS011;40551;50.478;19.378;2023-08-30T01:22:55;31.80;;;28.70;;
53525;SDS011;40551;50.478;19.378;2023-08-30T01:25:36;31.50;;;28.50;;
53525;SDS011;40551;50.478;19.378;2023-08-30T01:28:18;35.30;;;29.20;;
53525;SDS011;40551;50.478;19.378;2023-08-30T01:30:54;30.50;;;27.50;;
53525;SDS011;40551;50.478;19.378;2023-08-30T01:33:28;31.60;;;28.50;;
53525;SDS011;40551;50.478;19.378;2023-08-30T01:36:02;30.70;;;27.90;;
53525;SDS011;40551;50.478;19.378;2023-08-30T01:38:35;28.00;;;25.20;;
53525;SDS011;40551;50.478;19.378;2023-08-30T01:41:09;28.50;;;25.60;;
53525;SDS011;40551;50.478;19.378;2023-08-30T01:43:41;27.80;;;25.00;;
53525;SDS011;40551;50.478;19.378;2023-08-30T01:46:14;27.10;;;24.30;;
53525;SDS011;40551;50.478;19.378;2023-08-30T01:48:48;27.00;;;24.30;;
53525;SDS011;40551;50.478;19.378;2023-08-30T01:51:21;27.70;;;24.90;;
53525;SDS011;40551;50.478;19.378;2023-08-30T01:53:54;29.80;;;24.30;;
53525;SDS011;40551;50.478;19.378;2023-08-30T01:56:27;25.80;;;23.20;;
53525;SDS011;40551;50.478;19.378;2023-08-30T01:59:00;25.60;;;23.10;;
53525;SDS011;40551;50.478;19.378;2023-08-30T02:01:32;24.90;;;22.20;;
53525;SDS011;40551;50.478;19.378;2023-08-30T02:04:04;25.10;;;21.90;;
53525;SDS011;40551;50.478;19.378;2023-08-30T02:06:47;25.40;;;22.90;;
53525;SDS011;40551;50.478;19.378;2023-08-30T02:09:26;23.10;;;20.60;;
53525;SDS011;40551;50.478;19.378;2023-08-30T02:12:07;24.50;;;22.00;;
53525;SDS011;40551;50.478;19.378;2023-08-30T02:14:43;22.50;;;20.20;;
53525;SDS011;40551;50.478;19.378;2023-08-30T02:17:19;23.10;;;20.70;;
53525;SDS011;40551;50.478;19.378;2023-08-30T02:19:51;22.80;;;20.40;;
53525;SDS011;40551;50.478;19.378;2023-08-30T02:22:23;24.00;;;21.50;;
53525;SDS011;40551;50.478;19.378;2023-08-30T02:24:55;23.60;;;21.00;;
53525;SDS011;40551;50.478;19.378;2023-08-30T02:27:30;22.20;;;19.70;;
53525;SDS011;40551;50.478;19.378;2023-08-30T02:30:03;23.50;;;21.20;;
53525;SDS011;40551;50.478;19.378;2023-08-30T02:32:36;20.90;;;18.70;;
53525;SDS011;40551;50.478;19.378;2023-08-30T02:35:08;20.70;;;18.60;;
53525;SDS011;40551;50.478;19.378;2023-08-30T02:37:40;20.80;;;17.70;;
53525;SDS011;40551;50.478;19.378;2023-08-30T02:40:12;24.50;;;17.50;;
53525;SDS011;40551;50.478;19.378;2023-08-30T02:42:44;26.70;;;18.30;;
53525;SDS011;40551;50.478;19.378;2023-08-30T02:45:16;17.90;;;16.00;;
53525;SDS011;40551;50.478;19.378;2023-08-30T02:47:48;20.80;;;14.90;;
53525;SDS011;40551;50.478;19.378;2023-08-30T02:50:21;15.80;;;14.20;;
53525;SDS011;40551;50.478;19.378;2023-08-30T02:52:53;16.90;;;14.70;;
53525;SDS011;40551;50.478;19.378;2023-08-30T02:55:25;15.30;;;12.90;;
53525;SDS011;40551;50.478;19.378;2023-08-30T02:57:57;14.20;;;11.70;;
53525;SDS011;40551;50.478;19.378;2023-08-30T03:00:29;12.90;;;10.90;;
53525;SDS011;40551;50.478;19.378;2023-08-30T03:03:01;13.80;;;10.50;;
53525;SDS011;40551;50.478;19.378;2023-08-30T03:05:33;11.10;;;9.80;;
53525;SDS011;40551;50.478;19.378;2023-08-30T03:08:06;11.60;;;9.40;;
53525;SDS011;40551;50.478;19.378;2023-08-30T03:10:38;10.70;;;9.60;;
53525;SDS011;40551;50.478;19.378;2023-08-30T03:13:10;11.30;;;9.00;;
53525;SDS011;40551;50.478;19.378;2023-08-30T03:15:44;10.70;;;9.60;;
53525;SDS011;40551;50.478;19.378;2023-08-30T03:18:16;13.90;;;10.60;;
53525;SDS011;40551;50.478;19.378;2023-08-30T03:20:49;11.40;;;10.20;;
53525;SDS011;40551;50.478;19.378;2023-08-30T03:23:32;13.40;;;11.50;;
53525;SDS011;40551;50.478;19.378;2023-08-30T03:28:51;14.70;;;11.80;;
53525;SDS011;40551;50.478;19.378;2023-08-30T03:31:24;13.40;;;12.00;;
53525;SDS011;40551;50.478;19.378;2023-08-30T03:33:56;17.10;;;14.30;;
53525;SDS011;40551;50.478;19.378;2023-08-30T03:36:28;16.60;;;14.90;;
53525;SDS011;40551;50.478;19.378;2023-08-30T03:39:00;16.90;;;14.20;;
53525;SDS011;40551;50.478;19.378;2023-08-30T03:41:32;16.60;;;14.60;;
53525;SDS011;40551;50.478;19.378;2023-08-30T03:44:05;15.40;;;13.80;;
53525;SDS011;40551;50.478;19.378;2023-08-30T03:46:37;15.60;;;14.00;;
53525;SDS011;40551;50.478;19.378;2023-08-30T03:49:09;15.90;;;14.20;;
53525;SDS011;40551;50.478;19.378;2023-08-30T03:51:41;16.70;;;15.10;;
53525;SDS011;40551;50.478;19.378;2023-08-30T03:54:13;16.40;;;14.00;;
53525;SDS011;40551;50.478;19.378;2023-08-30T03:56:45;17.40;;;14.80;;
53525;SDS011;40551;50.478;19.378;2023-08-30T03:59:18;16.30;;;14.60;;
53525;SDS011;40551;50.478;19.378;2023-08-30T04:01:54;17.20;;;15.50;;
53525;SDS011;40551;50.478;19.378;2023-08-30T04:04:26;19.40;;;16.10;;
53525;SDS011;40551;50.478;19.378;2023-08-30T04:06:58;19.00;;;17.00;;
53525;SDS011;40551;50.478;19.378;2023-08-30T04:09:30;17.70;;;15.90;;
53525;SDS011;40551;50.478;19.378;2023-08-30T04:12:02;19.50;;;17.60;;
53525;SDS011;40551;50.478;19.378;2023-08-30T04:14:35;19.90;;;18.00;;
53525;SDS011;40551;50.478;19.378;2023-08-30T04:17:06;21.70;;;19.50;;
53525;SDS011;40551;50.478;19.378;2023-08-30T04:19:39;23.50;;;21.00;;
53525;SDS011;40551;50.478;19.378;2023-08-30T04:22:10;22.90;;;20.40;;
53525;SDS011;40551;50.478;19.378;2023-08-30T04:24:42;21.00;;;18.70;;
53525;SDS011;40551;50.478;19.378;2023-08-30T04:27:16;20.00;;;18.00;;
53525;SDS011;40551;50.478;19.378;2023-08-30T04:29:48;22.00;;;17.90;;
53525;SDS011;40551;50.478;19.378;2023-08-30T04:32:19;22.90;;;16.40;;
53525;SDS011;40551;50.478;19.378;2023-08-30T04:34:51;20.30;;;15.60;;
53525;SDS011;40551;50.478;19.378;2023-08-30T04:37:23;26.60;;;17.90;;
53525;SDS011;40551;50.478;19.378;2023-08-30T04:40:01;23.10;;;17.70;;
53525;SDS011;40551;50.478;19.378;2023-08-30T04:42:33;20.10;;;17.90;;
53525;SDS011;40551;50.478;19.378;2023-08-30T04:45:06;19.90;;;17.20;;
53525;SDS011;40551;50.478;19.378;2023-08-30T04:47:40;20.00;;;17.80;;
53525;SDS011;40551;50.478;19.378;2023-08-30T04:50:15;21.70;;;18.80;;
53525;SDS011;40551;50.478;19.378;2023-08-30T04:52:47;21.40;;;19.20;;
53525;SDS011;40551;50.478;19.378;2023-08-30T04:55:19;44.00;;;15.90;;
53525;SDS011;40551;50.478;19.378;2023-08-30T04:57:51;26.20;;;16.70;;
53525;SDS011;40551;50.478;19.378;2023-08-30T05:00:24;19.50;;;15.70;;
53525;SDS011;40551;50.478;19.378;2023-08-30T05:02:57;32.70;;;16.40;;
53525;SDS011;40551;50.478;19.378;2023-08-30T05:05:29;25.50;;;15.50;;
53525;SDS011;40551;50.478;19.378;2023-08-30T05:08:02;89.20;;;16.30;;
53525;SDS011;40551;50.478;19.378;2023-08-30T05:10:34;17.30;;;15.50;;
53525;SDS011;40551;50.478;19.378;2023-08-30T05:13:06;18.90;;;16.20;;
53525;SDS011;40551;50.478;19.378;2023-08-30T05:15:39;38.10;;;16.20;;
53525;SDS011;40551;50.478;19.378;2023-08-30T05:18:12;36.00;;;16.30;;
53525;SDS011;40551;50.478;19.378;2023-08-30T05:20:44;22.80;;;15.60;;
53525;SDS011;40551;50.478;19.378;2023-08-30T05:23:16;40.40;;;16.80;;
53525;SDS011;40551;50.478;19.378;2023-08-30T05:25:49;19.80;;;16.80;;
53525;SDS011;40551;50.478;19.378;2023-08-30T05:28:21;28.70;;;19.30;;
53525;SDS011;40551;50.478;19.378;2023-08-30T05:30:53;24.40;;;19.10;;
53525;SDS011;40551;50.478;19.378;2023-08-30T05:33:30;26.20;;;19.40;;
53525;SDS011;40551;50.478;19.378;2023-08-30T05:36:38;20.10;;;18.00;;
53525;SDS011;40551;50.478;19.378;2023-08-30T05:39:42;22.60;;;18.30;;
53525;SDS011;40551;50.478;19.378;2023-08-30T05:42:15;21.00;;;18.70;;
53525;SDS011;40551;50.478;19.378;2023-08-30T05:44:46;20.90;;;18.70;;
53525;SDS011;40551;50.478;19.378;2023-08-30T05:47:20;24.60;;;20.40;;
53525;SDS011;40551;50.478;19.378;2023-08-30T05:49:52;20.90;;;17.90;;
53525;SDS011;40551;50.478;19.378;2023-08-30T05:52:24;23.10;;;17.90;;
53525;SDS011;40551;50.478;19.378;2023-08-30T05:54:56;20.50;;;17.40;;
53525;SDS011;40551;50.478;19.378;2023-08-30T05:57:28;20.90;;;17.00;;
53525;SDS011;40551;50.478;19.378;2023-08-30T06:00:03;20.20;;;18.10;;
53525;SDS011;40551;50.478;19.378;2023-08-30T06:02:43;20.10;;;18.00;;
53525;SDS011;40551;50.478;19.378;2023-08-30T06:05:15;20.20;;;17.40;;
53525;SDS011;40551;50.478;19.378;2023-08-30T06:07:48;18.80;;;16.80;;
53525;SDS011;40551;50.478;19.378;2023-08-30T06:10:20;19.20;;;17.20;;
53525;SDS011;40551;50.478;19.378;2023-08-30T06:12:52;34.10;;;17.80;;
53525;SDS011;40551;50.478;19.378;2023-08-30T06:15:25;19.60;;;16.70;;
53525;SDS011;40551;50.478;19.378;2023-08-30T06:17:57;19.80;;;17.70;;
53525;SDS011;40551;50.478;19.378;2023-08-30T06:20:29;18.80;;;16.90;;
53525;SDS011;40551;50.478;19.378;2023-08-30T06:23:03;22.10;;;16.70;;
53525;SDS011;40551;50.478;19.378;2023-08-30T06:25:35;19.70;;;16.10;;
53525;SDS011;40551;50.478;19.378;2023-08-30T06:28:08;19.10;;;16.60;;
53525;SDS011;40551;50.478;19.378;2023-08-30T06:30:40;18.50;;;15.70;;
53525;SDS011;40551;50.478;19.378;2023-08-30T06:33:13;21.60;;;16.50;;
53525;SDS011;40551;50.478;19.378;2023-08-30T06:35:47;18.40;;;16.40;;
53525;SDS011;40551;50.478;19.378;2023-08-30T06:38:20;17.90;;;15.80;;
53525;SDS011;40551;50.478;19.378;2023-08-30T06:40:52;20.90;;;17.30;;
53525;SDS011;40551;50.478;19.378;2023-08-30T06:43:28;17.90;;;15.80;;
53525;SDS011;40551;50.478;19.378;2023-08-30T06:46:00;22.20;;;17.00;;
53525;SDS011;40551;50.478;19.378;2023-08-30T06:48:32;21.20;;;18.20;;
53525;SDS011;40551;50.478;19.378;2023-08-30T06:51:05;20.30;;;16.90;;
53525;SDS011;40551;50.478;19.378;2023-08-30T06:53:37;20.30;;;17.10;;
53525;SDS011;40551;50.478;19.378;2023-08-30T06:56:09;21.90;;;18.40;;
53525;SDS011;40551;50.478;19.378;2023-08-30T06:58:41;23.90;;;18.00;;
53525;SDS011;40551;50.478;19.378;2023-08-30T07:01:13;21.90;;;18.60;;
53525;SDS011;40551;50.478;19.378;2023-08-30T07:03:45;30.50;;;19.80;;
53525;SDS011;40551;50.478;19.378;2023-08-30T07:06:17;20.80;;;18.60;;
53525;SDS011;40551;50.478;19.378;2023-08-30T07:08:49;26.40;;;19.80;;
53525;SDS011;40551;50.478;19.378;2023-08-30T07:11:22;27.80;;;21.60;;
53525;SDS011;40551;50.478;19.378;2023-08-30T07:14:02;25.60;;;19.50;;
53525;SDS011;40551;50.478;19.378;2023-08-30T07:16:35;23.40;;;19.90;;
53525;SDS011;40551;50.478;19.378;2023-08-30T07:19:06;24.30;;;20.20;;
53525;SDS011;40551;50.478;19.378;2023-08-30T07:21:39;23.10;;;20.60;;
53525;SDS011;40551;50.478;19.378;2023-08-30T07:24:11;22.70;;;20.30;;
53525;SDS011;40551;50.478;19.378;2023-08-30T07:26:44;24.70;;;21.20;;
53525;SDS011;40551;50.478;19.378;2023-08-30T07:29:16;22.30;;;20.00;;
53525;SDS011;40551;50.478;19.378;2023-08-30T07:31:47;27.30;;;21.50;;
53525;SDS011;40551;50.478;19.378;2023-08-30T07:34:22;23.30;;;20.90;;
53525;SDS011;40551;50.478;19.378;2023-08-30T07:36:55;21.70;;;18.30;;
53525;SDS011;40551;50.478;19.378;2023-08-30T07:39:27;23.90;;;18.40;;
53525;SDS011;40551;50.478;19.378;2023-08-30T07:41:59;21.10;;;18.90;;
53525;SDS011;40551;50.478;19.378;2023-08-30T07:44:32;19.20;;;17.20;;
53525;SDS011;40551;50.478;19.378;2023-08-30T07:47:04;18.50;;;15.50;;
53525;SDS011;40551;50.478;19.378;2023-08-30T07:49:36;16.80;;;15.00;;
53525;SDS011;40551;50.478;19.378;2023-08-30T07:52:09;19.10;;;16.20;;
53525;SDS011;40551;50.478;19.378;2023-08-30T07:54:42;19.30;;;17.10;;
53525;SDS011;40551;50.478;19.378;2023-08-30T07:57:14;23.50;;;18.90;;
53525;SDS011;40551;50.478;19.378;2023-08-30T07:59:46;20.80;;;18.60;;
53525;SDS011;40551;50.478;19.378;2023-08-30T08:02:18;20.20;;;18.10;;
53525;SDS011;40551;50.478;19.378;2023-08-30T08:04:50;19.60;;;17.50;;
53525;SDS011;40551;50.478;19.378;2023-08-30T08:07:22;19.90;;;17.80;;
53525;SDS011;40551;50.478;19.378;2023-08-30T08:09:57;19.70;;;17.30;;
53525;SDS011;40551;50.478;19.378;2023-08-30T08:12:29;20.20;;;17.20;;
53525;SDS011;40551;50.478;19.378;2023-08-30T08:15:03;19.30;;;17.30;;
53525;SDS011;40551;50.478;19.378;2023-08-30T08:17:36;20.20;;;15.00;;
53525;SDS011;40551;50.478;19.378;2023-08-30T08:20:09;14.90;;;13.30;;
53525;SDS011;40551;50.478;19.378;2023-08-30T08:22:43;15.90;;;14.30;;
53525;SDS011;40551;50.478;19.378;2023-08-30T08:25:16;16.50;;;14.60;;
53525;SDS011;40551;50.478;19.378;2023-08-30T08:27:50;15.80;;;14.10;;
53525;SDS011;40551;50.478;19.378;2023-08-30T08:30:22;15.60;;;13.90;;
53525;SDS011;40551;50.478;19.378;2023-08-30T08:32:54;14.80;;;13.20;;
53525;SDS011;40551;50.478;19.378;2023-08-30T08:35:28;16.70;;;13.60;;
53525;SDS011;40551;50.478;19.378;2023-08-30T08:38:00;19.00;;;14.70;;
53525;SDS011;40551;50.478;19.378;2023-08-30T08:40:37;15.50;;;13.70;;
53525;SDS011;40551;50.478;19.378;2023-08-30T08:43:11;15.10;;;13.50;;
53525;SDS011;40551;50.478;19.378;2023-08-30T08:45:45;14.70;;;13.10;;
53525;SDS011;40551;50.478;19.378;2023-08-30T08:48:17;14.80;;;12.90;;
53525;SDS011;40551;50.478;19.378;2023-08-30T08:50:50;12.80;;;11.40;;
53525;SDS011;40551;50.478;19.378;2023-08-30T08:53:22;15.50;;;11.60;;
53525;SDS011;40551;50.478;19.378;2023-08-30T08:55:55;14.60;;;12.00;;
53525;SDS011;40551;50.478;19.378;2023-08-30T08:58:28;14.20;;;11.70;;
53525;SDS011;40551;50.478;19.378;2023-08-30T09:01:00;14.10;;;11.80;;
53525;SDS011;40551;50.478;19.378;2023-08-30T09:03:33;13.30;;;11.40;;
53525;SDS011;40551;50.478;19.378;2023-08-30T09:06:07;13.50;;;11.90;;
53525;SDS011;40551;50.478;19.378;2023-08-30T09:08:40;13.70;;;10.70;;
53525;SDS011;40551;50.478;19.378;2023-08-30T09:11:12;16.20;;;11.50;;
53525;SDS011;40551;50.478;19.378;2023-08-30T09:13:44;11.90;;;10.20;;
53525;SDS011;40551;50.478;19.378;2023-08-30T09:16:16;11.90;;;10.20;;
53525;SDS011;40551;50.478;19.378;2023-08-30T09:18:58;11.50;;;9.30;;
53525;SDS011;40551;50.478;19.378;2023-08-30T09:21:33;13.80;;;9.30;;
53525;SDS011;40551;50.478;19.378;2023-08-30T09:24:06;10.10;;;8.90;;
53525;SDS011;40551;50.478;19.378;2023-08-30T09:26:38;10.00;;;8.00;;
53525;SDS011;40551;50.478;19.378;2023-08-30T09:29:19;10.30;;;7.60;;
53525;SDS011;40551;50.478;19.378;2023-08-30T09:31:52;11.20;;;7.50;;
53525;SDS011;40551;50.478;19.378;2023-08-30T09:34:25;9.70;;;6.70;;
53525;SDS011;40551;50.478;19.378;2023-08-30T09:36:58;9.50;;;6.40;;
53525;SDS011;40551;50.478;19.378;2023-08-30T09:39:34;8.50;;;5.00;;
53525;SDS011;40551;50.478;19.378;2023-08-30T09:42:07;8.30;;;5.00;;
53525;SDS011;40551;50.478;19.378;2023-08-30T09:44:39;7.90;;;3.80;;
53525;SDS011;40551;50.478;19.378;2023-08-30T09:47:12;6.60;;;3.30;;
53525;SDS011;40551;50.478;19.378;2023-08-30T09:49:45;8.70;;;3.00;;
53525;SDS011;40551;50.478;19.378;2023-08-30T09:52:18;5.90;;;2.60;;
53525;SDS011;40551;50.478;19.378;2023-08-30T09:54:53;6.80;;;2.90;;
53525;SDS011;40551;50.478;19.378;2023-08-30T09:57:26;5.50;;;2.60;;
53525;SDS011;40551;50.478;19.378;2023-08-30T09:59:59;5.40;;;2.50;;
53525;SDS011;40551;50.478;19.378;2023-08-30T10:02:33;4.80;;;2.00;;
53525;SDS011;40551;50.478;19.378;2023-08-30T10:05:06;5.50;;;2.10;;
53525;SDS011;40551;50.478;19.378;2023-08-30T10:07:38;5.20;;;2.20;;
53525;SDS011;40551;50.478;19.378;2023-08-30T10:10:10;4.20;;;2.00;;
53525;SDS011;40551;50.478;19.378;2023-08-30T10:12:44;4.50;;;2.20;;
53525;SDS011;40551;50.478;19.378;2023-08-30T10:15:36;5.70;;;2.40;;
53525;SDS011;40551;50.478;19.378;2023-08-30T10:18:17;9.20;;;2.60;;
53525;SDS011;40551;50.478;19.378;2023-08-30T10:20:53;4.80;;;1.90;;
53525;SDS011;40551;50.478;19.378;2023-08-30T10:23:26;5.50;;;2.00;;
53525;SDS011;40551;50.478;19.378;2023-08-30T10:26:01;7.30;;;4.90;;
53525;SDS011;40551;50.478;19.378;2023-08-30T10:28:35;8.40;;;2.20;;
53525;SDS011;40551;50.478;19.378;2023-08-30T10:31:08;6.10;;;3.80;;
53525;SDS011;40551;50.478;19.378;2023-08-30T10:33:52;4.70;;;1.70;;
53525;SDS011;40551;50.478;19.378;2023-08-30T10:36:26;3.90;;;1.60;;
53525;SDS011;40551;50.478;19.378;2023-08-30T10:38:58;3.30;;;1.70;;
53525;SDS011;40551;50.478;19.378;2023-08-30T10:41:55;4.80;;;1.70;;
53525;SDS011;40551;50.478;19.378;2023-08-30T10:44:27;3.80;;;2.00;;
53525;SDS011;40551;50.478;19.378;2023-08-30T10:47:01;4.80;;;1.80;;
53525;SDS011;40551;50.478;19.378;2023-08-30T10:49:41;4.90;;;1.40;;
53525;SDS011;40551;50.478;19.378;2023-08-30T10:52:14;3.30;;;1.40;;
53525;SDS011;40551;50.478;19.378;2023-08-30T10:54:46;3.80;;;1.30;;
53525;SDS011;40551;50.478;19.378;2023-08-30T10:57:19;5.20;;;1.30;;
53525;SDS011;40551;50.478;19.378;2023-08-30T11:00:09;3.00;;;1.20;;
53525;SDS011;40551;50.478;19.378;2023-08-30T11:02:44;4.00;;;1.20;;
53525;SDS011;40551;50.478;19.378;2023-08-30T11:05:20;3.90;;;1.30;;
53525;SDS011;40551;50.478;19.378;2023-08-30T11:07:53;6.00;;;1.40;;
53525;SDS011;40551;50.478;19.378;2023-08-30T11:10:27;3.40;;;1.40;;
53525;SDS011;40551;50.478;19.378;2023-08-30T11:13:00;3.30;;;1.50;;
53525;SDS011;40551;50.478;19.378;2023-08-30T11:15:33;4.30;;;1.60;;
53525;SDS011;40551;50.478;19.378;2023-08-30T11:18:06;5.00;;;1.70;;
53525;SDS011;40551;50.478;19.378;2023-08-30T11:20:40;3.30;;;1.40;;
53525;SDS011;40551;50.478;19.378;2023-08-30T11:23:13;4.40;;;1.30;;
53525;SDS011;40551;50.478;19.378;2023-08-30T11:25:52;5.50;;;1.80;;
53525;SDS011;40551;50.478;19.378;2023-08-30T11:28:24;18.40;;;16.80;;
53525;SDS011;40551;50.478;19.378;2023-08-30T11:30:56;9.20;;;7.80;;
53525;SDS011;40551;50.478;19.378;2023-08-30T11:33:31;11.70;;;9.00;;
53525;SDS011;40551;50.478;19.378;2023-08-30T11:36:05;6.90;;;3.30;;
53525;SDS011;40551;50.478;19.378;2023-08-30T11:38:38;5.60;;;1.80;;
53525;SDS011;40551;50.478;19.378;2023-08-30T11:41:11;5.80;;;1.80;;
53525;SDS011;40551;50.478;19.378;2023-08-30T11:43:44;5.70;;;1.70;;
53525;SDS011;40551;50.478;19.378;2023-08-30T11:46:17;5.30;;;1.70;;
53525;SDS011;40551;50.478;19.378;2023-08-30T11:48:51;6.80;;;1.80;;
53525;SDS011;40551;50.478;19.378;2023-08-30T11:51:23;7.20;;;2.00;;
53525;SDS011;40551;50.478;19.378;2023-08-30T11:53:55;5.00;;;2.20;;
53525;SDS011;40551;50.478;19.378;2023-08-30T11:56:28;4.50;;;2.20;;
53525;SDS011;40551;50.478;19.378;2023-08-30T11:59:00;6.20;;;2.30;;
53525;SDS011;40551;50.478;19.378;2023-08-30T12:01:33;5.40;;;2.20;;
53525;SDS011;40551;50.478;19.378;2023-08-30T12:04:12;5.30;;;2.40;;
53525;SDS011;40551;50.478;19.378;2023-08-30T12:06:44;5.90;;;2.30;;
53525;SDS011;40551;50.478;19.378;2023-08-30T12:09:22;5.40;;;2.20;;
53525;SDS011;40551;50.478;19.378;2023-08-30T12:12:06;4.00;;;1.80;;
53525;SDS011;40551;50.478;19.378;2023-08-30T12:14:39;5.90;;;3.30;;
53525;SDS011;40551;50.478;19.378;2023-08-30T12:17:11;6.80;;;2.40;;
53525;SDS011;40551;50.478;19.378;2023-08-30T12:19:43;4.90;;;2.10;;
53525;SDS011;40551;50.478;19.378;2023-08-30T12:22:15;4.40;;;2.00;;
53525;SDS011;40551;50.478;19.378;2023-08-30T12:24:47;5.60;;;1.90;;
53525;SDS011;40551;50.478;19.378;2023-08-30T12:27:18;6.10;;;2.30;;
53525;SDS011;40551;50.478;19.378;2023-08-30T12:29:50;6.60;;;2.30;;
53525;SDS011;40551;50.478;19.378;2023-08-30T12:32:21;4.90;;;1.90;;
53525;SDS011;40551;50.478;19.378;2023-08-30T12:34:53;3.70;;;1.80;;
53525;SDS011;40551;50.478;19.378;2023-08-30T12:37:25;6.40;;;2.30;;
53525;SDS011;40551;50.478;19.378;2023-08-30T12:39:57;4.40;;;1.80;;
53525;SDS011;40551;50.478;19.378;2023-08-30T12:42:29;5.70;;;2.40;;
53525;SDS011;40551;50.478;19.378;2023-08-30T12:45:02;5.70;;;2.40;;
53525;SDS011;40551;50.478;19.378;2023-08-30T12:47:37;5.20;;;2.20;;
53525;SDS011;40551;50.478;19.378;2023-08-30T12:50:09;7.80;;;2.10;;
53525;SDS011;40551;50.478;19.378;2023-08-30T12:52:41;7.30;;;2.00;;
53525;SDS011;40551;50.478;19.378;2023-08-30T12:55:13;8.00;;;1.90;;
53525;SDS011;40551;50.478;19.378;2023-08-30T12:57:46;4.90;;;1.90;;
53525;SDS011;40551;50.478;19.378;2023-08-30T13:00:19;5.10;;;1.90;;
53525;SDS011;40551;50.478;19.378;2023-08-30T13:02:51;7.00;;;1.90;;
53525;SDS011;40551;50.478;19.378;2023-08-30T13:05:24;7.70;;;1.80;;
53525;SDS011;40551;50.478;19.378;2023-08-30T13:07:56;5.10;;;1.70;;
53525;SDS011;40551;50.478;19.378;2023-08-30T13:10:28;4.40;;;1.50;;
53525;SDS011;40551;50.478;19.378;2023-08-30T13:13:00;3.90;;;1.50;;
53525;SDS011;40551;50.478;19.378;2023-08-30T13:15:33;7.00;;;2.00;;
53525;SDS011;40551;50.478;19.378;2023-08-30T13:18:05;4.00;;;1.60;;
53525;SDS011;40551;50.478;19.378;2023-08-30T13:20:40;5.00;;;2.00;;
53525;SDS011;40551;50.478;19.378;2023-08-30T13:23:12;5.50;;;2.00;;
53525;SDS011;40551;50.478;19.378;2023-08-30T13:25:44;7.90;;;2.60;;
53525;SDS011;40551;50.478;19.378;2023-08-30T13:28:18;5.80;;;2.40;;
53525;SDS011;40551;50.478;19.378;2023-08-30T13:30:50;6.70;;;2.30;;
53525;SDS011;40551;50.478;19.378;2023-08-30T13:33:24;5.80;;;2.30;;
53525;SDS011;40551;50.478;19.378;2023-08-30T13:35:56;5.10;;;2.00;;
53525;SDS011;40551;50.478;19.378;2023-08-30T13:38:29;7.20;;;2.20;;
53525;SDS011;40551;50.478;19.378;2023-08-30T13:41:01;8.10;;;2.50;;
53525;SDS011;40551;50.478;19.378;2023-08-30T13:43:34;7.50;;;2.50;;
53525;SDS011;40551;50.478;19.378;2023-08-30T13:46:07;6.90;;;2.40;;
53525;SDS011;40551;50.478;19.378;2023-08-30T13:48:40;7.90;;;2.10;;
53525;SDS011;40551;50.478;19.378;2023-08-30T13:51:12;5.40;;;2.10;;
53525;SDS011;40551;50.478;19.378;2023-08-30T13:53:45;5.30;;;1.90;;
53525;SDS011;40551;50.478;19.378;2023-08-30T13:56:18;6.40;;;2.20;;
53525;SDS011;40551;50.478;19.378;2023-08-30T13:58:50;6.90;;;2.00;;
53525;SDS011;40551;50.478;19.378;2023-08-30T14:01:22;6.90;;;3.80;;
53525;SDS011;40551;50.478;19.378;2023-08-30T14:03:55;8.10;;;5.50;;
53525;SDS011;40551;50.478;19.378;2023-08-30T14:06:27;7.20;;;3.60;;
53525;SDS011;40551;50.478;19.378;2023-08-30T14:08:59;5.40;;;2.90;;
53525;SDS011;40551;50.478;19.378;2023-08-30T14:11:34;6.50;;;2.50;;
53525;SDS011;40551;50.478;19.378;2023-08-30T14:14:07;6.70;;;2.40;;
53525;SDS011;40551;50.478;19.378;2023-08-30T14:16:40;6.90;;;2.30;;
53525;SDS011;40551;50.478;19.378;2023-08-30T14:19:14;7.70;;;3.50;;
53525;SDS011;40551;50.478;19.378;2023-08-30T14:21:47;8.50;;;3.90;;
53525;SDS011;40551;50.478;19.378;2023-08-30T14:24:19;8.30;;;2.90;;
53525;SDS011;40551;50.478;19.378;2023-08-30T14:26:51;7.70;;;2.40;;
53525;SDS011;40551;50.478;19.378;2023-08-30T14:29:24;6.50;;;2.30;;
53525;SDS011;40551;50.478;19.378;2023-08-30T14:31:56;6.00;;;2.20;;
53525;SDS011;40551;50.478;19.378;2023-08-30T14:34:28;5.40;;;2.30;;
53525;SDS011;40551;50.478;19.378;2023-08-30T14:37:00;5.10;;;2.20;;
53525;SDS011;40551;50.478;19.378;2023-08-30T14:39:33;6.50;;;2.50;;
53525;SDS011;40551;50.478;19.378;2023-08-30T14:42:05;5.70;;;2.50;;
53525;SDS011;40551;50.478;19.378;2023-08-30T14:44:38;5.70;;;2.60;;
53525;SDS011;40551;50.478;19.378;2023-08-30T14:47:10;8.40;;;2.30;;
53525;SDS011;40551;50.478;19.378;2023-08-30T14:49:44;5.10;;;2.20;;
53525;SDS011;40551;50.478;19.378;2023-08-30T14:52:16;6.90;;;2.10;;
53525;SDS011;40551;50.478;19.378;2023-08-30T14:54:49;5.70;;;2.00;;
53525;SDS011;40551;50.478;19.378;2023-08-30T14:57:21;4.80;;;2.20;;